Terminal Aerodrome Forecast
Issued by NWS

Current Version | Previous Version | Graphics & Text | Print | Product List | Glossary On
Versions: 1 2 3 4 5 6 7 8 9 10 11 12 13 14 15 16 17 18 19 20 21 22 23 24 25
080
FTUS41 KRLX 240859 AAA
TAFCKB
TAF AMD
KCKB 240859Z 2409/2506 32004KT 6SM -RA FEW008 OVC014
     FM241200 29005KT P6SM OVC007
     FM242100 28008KT P6SM OVC012=

USA.gov is the U.S. government's official web portal to all federal, state and local government web resources and services.